createdAt,value
2018-08-19T00:05:06.696Z,63.50
2018-08-19T00:10:01.672Z,62.59
2018-08-19T00:14:56.591Z,62.26
2018-08-19T00:19:51.488Z,62.21
2018-08-19T00:24:46.461Z,63.26
2018-08-19T00:29:41.316Z,61.76
2018-08-19T00:34:36.368Z,63.55
2018-08-19T00:39:31.195Z,63.80
2018-08-19T00:44:26.088Z,64.58
2018-08-19T00:49:21.017Z,64.93
2018-08-19T00:54:15.826Z,65.30
2018-08-19T00:59:11.811Z,65.10
2018-08-19T01:04:10.668Z,65.24
2018-08-19T01:09:06.098Z,64.92
2018-08-19T01:14:01.481Z,64.91
2018-08-19T01:18:59.811Z,65.67
2018-08-19T01:23:54.780Z,65.92
2018-08-19T01:28:49.637Z,66.10
2018-08-19T01:33:44.566Z,67.61
2018-08-19T01:38:39.517Z,68.06
2018-08-19T01:43:34.475Z,67.91
2018-08-19T01:48:29.736Z,68.73
2018-08-19T01:53:24.509Z,69.25
2018-08-19T01:58:19.303Z,69.29
2018-08-19T02:03:14.188Z,68.35
2018-08-19T02:08:09.373Z,67.54
2018-08-19T02:13:04.425Z,68.87
2018-08-19T02:18:00.394Z,68.41
2018-08-19T02:23:03.361Z,69.34
2018-08-19T02:27:58.194Z,68.52
2018-08-19T02:32:55.504Z,68.92
2018-08-19T02:37:50.446Z,70.14
2018-08-19T02:42:45.724Z,69.82
2018-08-19T02:47:40.523Z,69.05
2018-08-19T02:52:38.051Z,70.91
2018-08-19T02:57:33.728Z,71.07
2018-08-19T03:02:35.275Z,70.44
2018-08-19T03:07:31.180Z,70.14
2018-08-19T03:12:26.084Z,70.12
2018-08-19T03:17:20.924Z,70.81
2018-08-19T03:22:15.777Z,70.86
2018-08-19T03:27:10.684Z,71.47
2018-08-19T03:32:05.602Z,71.84
2018-08-19T03:37:00.471Z,71.29
2018-08-19T03:41:55.289Z,70.55
2018-08-19T03:46:50.366Z,71.58
2018-08-19T03:51:45.186Z,71.92
2018-08-19T03:56:40.068Z,72.09
2018-08-19T04:01:44.041Z,73.39
2018-08-19T04:06:39.979Z,72.00
2018-08-19T04:11:34.815Z,71.40
2018-08-19T04:16:30.626Z,71.84
2018-08-19T04:21:25.751Z,72.39
2018-08-19T04:26:20.604Z,72.73
2018-08-19T04:31:20.553Z,72.07
2018-08-19T04:36:17.394Z,71.14
2018-08-19T04:41:12.818Z,72.25
2018-08-19T04:46:07.799Z,70.48
2018-08-19T04:51:02.580Z,68.32
2018-08-19T04:55:57.618Z,67.15
2018-08-19T05:00:52.470Z,65.76
2018-08-19T05:05:47.328Z,62.26
2018-08-19T05:10:42.868Z,59.27
2018-08-19T05:15:38.226Z,57.64
2018-08-19T05:20:33.151Z,57.52
2018-08-19T05:25:27.953Z,59.43
2018-08-19T05:30:22.719Z,59.36
2018-08-19T05:35:17.529Z,57.65
2018-08-19T05:40:12.345Z,58.83
2018-08-19T05:45:07.771Z,58.04
2018-08-19T05:50:02.581Z,56.93
2018-08-19T05:55:00.850Z,59.73
2018-08-19T05:59:55.763Z,60.27
2018-08-19T06:04:50.828Z,59.34
2018-08-19T06:09:45.737Z,59.04
2018-08-19T06:14:40.565Z,58.43
2018-08-19T06:19:35.327Z,58.31
2018-08-19T06:24:30.239Z,56.62
2018-08-19T06:29:45.242Z,57.63
2018-08-19T06:34:40.287Z,57.10
2018-08-19T06:39:35.122Z,56.21
2018-08-19T06:44:29.926Z,54.86
2018-08-19T06:49:24.868Z,52.90
2018-08-19T06:54:19.842Z,52.82
2018-08-19T06:59:14.907Z,50.25
2018-08-19T07:04:10.016Z,50.18
2018-08-19T07:09:06.134Z,51.23
2018-08-19T07:14:01.005Z,48.48
2018-08-19T07:18:56.015Z,49.28
2018-08-19T07:23:51.141Z,47.97
2018-08-19T07:28:45.889Z,47.98
2018-08-19T07:33:40.810Z,47.33
2018-08-19T07:38:35.773Z,46.34
2018-08-19T07:43:30.696Z,44.57
2018-08-19T07:48:25.750Z,44.25
2018-08-19T07:53:20.526Z,44.52
2018-08-19T07:58:20.275Z,43.88
2018-08-19T08:03:15.167Z,42.12
2018-08-19T08:08:10.228Z,43.48
2018-08-19T08:13:12.297Z,41.45
2018-08-19T08:18:07.295Z,41.06
2018-08-19T08:23:12.394Z,41.08
2018-08-19T08:28:07.235Z,39.23
2018-08-19T08:33:02.038Z,38.16
2018-08-19T08:37:56.895Z,38.42
2018-08-19T08:42:52.664Z,36.12
2018-08-19T08:47:47.596Z,36.09
2018-08-19T08:52:45.125Z,33.64
2018-08-19T08:57:40.100Z,31.40
2018-08-19T09:02:35.030Z,32.36
2018-08-19T09:07:29.954Z,30.79
2018-08-19T09:12:41.771Z,30.99
2018-08-19T09:17:36.631Z,30.70
2018-08-19T09:22:31.426Z,29.20
2018-08-19T09:27:26.354Z,28.62
2018-08-19T09:32:21.691Z,27.37
2018-08-19T09:37:16.512Z,27.05
2018-08-19T09:42:13.121Z,26.74
2018-08-19T09:47:08.278Z,27.17
2018-08-19T09:52:03.200Z,27.33
2018-08-19T09:56:58.245Z,25.37
2018-08-19T10:01:53.131Z,26.98
2018-08-19T10:06:50.642Z,25.95
2018-08-19T10:11:45.520Z,26.97
2018-08-19T10:16:44.717Z,25.78
2018-08-19T10:21:39.680Z,24.92
2018-08-19T10:26:34.557Z,24.89
2018-08-19T10:31:29.485Z,24.41
2018-08-19T10:36:24.561Z,26.08
2018-08-19T10:41:19.501Z,26.16
2018-08-19T10:46:14.352Z,23.97
2018-08-19T10:51:09.201Z,24.96
2018-08-19T10:56:04.440Z,24.22
2018-08-19T11:00:59.412Z,23.95
2018-08-19T11:05:55.824Z,25.57
2018-08-19T11:10:50.828Z,25.60
2018-08-19T11:15:51.415Z,24.82
2018-08-19T11:20:49.607Z,25.12
2018-08-19T11:25:44.410Z,24.49
2018-08-19T11:30:39.328Z,25.69
2018-08-19T11:35:38.203Z,24.55
2018-08-19T11:40:33.254Z,24.51
2018-08-19T11:45:28.080Z,24.72
2018-08-19T11:50:22.808Z,24.73
2018-08-19T11:55:17.638Z,24.85
2018-08-19T12:00:12.445Z,25.27
2018-08-19T12:05:07.373Z,24.92
2018-08-19T12:10:02.255Z,25.88
2018-08-19T12:14:57.127Z,25.80
2018-08-19T12:19:51.934Z,25.24
2018-08-19T12:24:48.241Z,26.11
2018-08-19T12:29:43.876Z,26.31
2018-08-19T12:34:47.835Z,27.09
2018-08-19T12:39:42.688Z,25.36
2018-08-19T12:44:37.633Z,26.34
2018-08-19T12:49:40.320Z,27.59
2018-08-19T12:54:35.288Z,27.44
2018-08-19T12:59:30.225Z,26.94
2018-08-19T13:04:25.075Z,26.54
2018-08-19T13:09:20.060Z,25.86
2018-08-19T13:14:14.951Z,25.11
2018-08-19T13:19:09.857Z,25.60
2018-08-19T13:24:04.724Z,26.11
2018-08-19T13:28:59.557Z,26.08
2018-08-19T13:33:54.423Z,26.43
2018-08-19T13:38:49.390Z,25.88
2018-08-19T13:43:44.230Z,26.26
2018-08-19T13:48:39.160Z,27.00
2018-08-19T13:53:33.984Z,26.30
2018-08-19T13:58:28.953Z,26.65
2018-08-19T14:03:23.919Z,27.48
2018-08-19T14:08:18.859Z,26.68
2018-08-19T14:13:13.715Z,27.39
2018-08-19T14:18:08.504Z,26.45
2018-08-19T14:23:03.333Z,27.48
2018-08-19T14:27:58.176Z,26.35
2018-08-19T14:32:53.164Z,27.02
2018-08-19T14:37:48.086Z,26.24
2018-08-19T14:42:43.075Z,26.93
2018-08-19T14:47:37.963Z,26.47
2018-08-19T14:52:32.896Z,26.70
2018-08-19T14:57:27.823Z,26.17
2018-08-19T15:02:34.481Z,25.74
2018-08-19T15:07:29.352Z,27.24
2018-08-19T15:12:25.435Z,26.34
2018-08-19T15:17:20.374Z,26.66
2018-08-19T15:22:15.352Z,27.35
2018-08-19T15:27:10.266Z,26.57
2018-08-19T15:32:05.297Z,27.14
2018-08-19T15:37:00.198Z,26.39
2018-08-19T15:41:55.117Z,27.49
2018-08-19T15:46:50.121Z,27.56
2018-08-19T15:51:45.081Z,27.50
2018-08-19T15:56:40.037Z,27.23
2018-08-19T16:01:35.647Z,28.21
2018-08-19T16:06:30.602Z,28.97
2018-08-19T16:11:25.483Z,28.50
2018-08-19T16:16:23.241Z,29.46
2018-08-19T16:21:18.064Z,29.18
2018-08-19T16:26:12.983Z,29.66
2018-08-19T16:31:07.842Z,29.19
2018-08-19T16:36:02.700Z,29.15
2018-08-19T16:40:57.627Z,29.10
2018-08-19T16:45:52.462Z,29.31
2018-08-19T16:50:47.489Z,31.02
2018-08-19T16:55:42.354Z,30.31
2018-08-19T17:00:37.163Z,31.02
2018-08-19T17:05:34.485Z,31.52
2018-08-19T17:10:30.335Z,32.36
2018-08-19T17:15:25.175Z,31.99
2018-08-19T17:20:19.957Z,32.30
2018-08-19T17:25:14.958Z,33.04
2018-08-19T17:30:13.843Z,33.69
2018-08-19T17:35:08.900Z,34.00
2018-08-19T17:40:03.981Z,33.47
2018-08-19T17:44:58.905Z,35.49
2018-08-19T17:49:54.497Z,37.42
2018-08-19T17:54:49.363Z,37.44
2018-08-19T17:59:44.321Z,40.72
2018-08-19T18:04:44.345Z,38.73
2018-08-19T18:09:43.218Z,39.48
2018-08-19T18:14:38.055Z,38.92
2018-08-19T18:19:37.134Z,40.33
2018-08-19T18:24:31.951Z,41.07
2018-08-19T18:29:26.885Z,41.36
2018-08-19T18:34:21.759Z,41.42
2018-08-19T18:39:16.625Z,40.85
2018-08-19T18:44:12.528Z,41.91
2018-08-19T18:49:11.960Z,42.69
2018-08-19T18:54:07.272Z,41.75
2018-08-19T18:59:02.941Z,42.44
2018-08-19T19:03:57.899Z,42.52
2018-08-19T19:08:52.971Z,42.72
2018-08-19T19:13:47.929Z,44.06
2018-08-19T19:18:42.817Z,46.30
2018-08-19T19:23:39.617Z,47.60
2018-08-19T19:28:34.670Z,48.22
2018-08-19T19:33:29.525Z,48.42
2018-08-19T19:38:24.451Z,49.52
2018-08-19T19:43:19.425Z,49.44
2018-08-19T19:48:14.302Z,49.65
2018-08-19T19:53:09.322Z,50.08
2018-08-19T19:58:04.438Z,50.98
2018-08-19T20:03:00.036Z,51.49
2018-08-19T20:07:55.096Z,51.75
2018-08-19T20:12:50.081Z,52.69
2018-08-19T20:17:45.110Z,53.33
2018-08-19T20:22:40.183Z,53.06
2018-08-19T20:27:35.189Z,54.30
2018-08-19T20:32:30.132Z,54.26
2018-08-19T20:37:26.485Z,54.62
2018-08-19T20:42:21.706Z,55.39
2018-08-19T20:47:16.804Z,56.33
2018-08-19T20:52:11.811Z,56.84
2018-08-19T20:57:06.934Z,57.98
2018-08-19T21:02:02.063Z,58.67
2018-08-19T21:06:57.089Z,58.23
2018-08-19T21:11:52.137Z,58.25
2018-08-19T21:16:47.041Z,59.08
2018-08-19T21:21:41.977Z,58.12
2018-08-19T21:26:37.065Z,58.46
2018-08-19T21:31:33.061Z,58.93
2018-08-19T21:36:27.992Z,59.80
2018-08-19T21:41:23.018Z,59.56
2018-08-19T21:46:17.867Z,59.95
2018-08-19T21:51:12.765Z,58.72
2018-08-19T21:56:07.905Z,60.75
2018-08-19T22:01:04.418Z,61.29
2018-08-19T22:05:59.266Z,62.14
2018-08-19T22:10:54.125Z,62.01
2018-08-19T22:15:49.391Z,62.24
2018-08-19T22:21:06.207Z,63.48
2018-08-19T22:26:01.068Z,63.46
2018-08-19T22:30:55.954Z,63.04
2018-08-19T22:35:50.903Z,63.91
2018-08-19T22:40:45.914Z,63.64
2018-08-19T22:45:40.959Z,64.87
2018-08-19T22:50:35.819Z,64.83
2018-08-19T22:55:30.693Z,65.87
2018-08-19T23:00:26.275Z,65.71
2018-08-19T23:05:21.235Z,65.28
2018-08-19T23:10:16.060Z,66.14
2018-08-19T23:15:27.614Z,66.97
2018-08-19T23:20:22.567Z,67.21
2018-08-19T23:25:17.486Z,67.10
2018-08-19T23:30:12.361Z,67.45
2018-08-19T23:35:07.276Z,68.85
2018-08-19T23:40:02.155Z,68.54
2018-08-19T23:44:57.197Z,68.26
2018-08-19T23:49:52.165Z,65.81
2018-08-19T23:54:47.078Z,65.86
2018-08-19T23:59:42.201Z,65.43
